Aeroporto :
LOGIN :

Iscrizione | Disclaimer

   EN    FR    IT 

 










Sommario :    VFR   VFR Marginale   IFR   IFR Intensivo   IFR Molto Intensivo
Visibilità : 
Base nubi : 
>= 8 km
>= 3000ft
5 / 8 km
1000 / 3000 ft
1500m / 5 km
500 / 1000 ft
800 / 1500m
200 / 500 ft
< 800m
< 200 ft
Simboli :   Temporali  Nebbia  Neve Forte  Precipitazioni Forti  Vento > 20 kt
SIGMETs :   Varie  Temporali  Ghiacco  Turbolenza  Onda orograficha  Ceneri Vulcaniche






- Altitudine del aeroporto : 465 ft
- Codice IATA : LEJ


EDDP - Leipzig Halle

ULTIMO METAR :
  • 220650Z 21006KT 9999 BKN016 03/03 Q1010 NOSIG

METARs OBSOLETI :
  • 220620Z 16006KT 7000 BKN019 03/02 Q1010 TEMPO 1200 BCFG
  • 220550Z 18005KT CAVOK 03/03 Q1010 NOSIG
  • 220520Z 21005KT 180V240 CAVOK 04/03 Q1009 NOSIG
  • 220450Z 18004KT CAVOK 04/03 Q1009 NOSIG
  • 220420Z 18006KT 9999 FEW002 05/04 Q1009 TEMPO BKN002

TAF COR TAF EDDP
Valido dal 22 a 06 ore il 23 a 06 ore UTC


220557Z 2206/2306 17005KT 9000 FEW025
PROB30
TEMPO 2206/2208 0500 FG
BECMG 2215/2218 10007KT
PROB40
TEMPO 2302/2306 2500 BCFG



MetMap, La meteo Aeronautica in un colpo d'occhio ! - Copyright ORBIFLY Dicembre 2007 - Disclaimer

ORBIFLY MET'MAP TEAM :

Programmazione e sviluppo : Alexandra Zaïnal
Concezione e sviluppo : Baudouin d'Aumeries
Co-Programmazione e sviluppo : Marc-Olivier Méhu
Supporto tecnico e logistico : Manuel Goepfert
Aiuto per la traduzione : Arnaldo La Scala

Contatto : metmap@orbifly.com




FONTI E CREDITI :

   NOAA